Time;durP1;ratioP1;P1;durP2;ratioP2;P2;SDS_P1;SDS_P2;PMS_P1;PMS_P2;Temp;Humidity;BMP_temperature;BMP_pressure;BME280_temperature;BME280_humidity;BME280_pressure;Samples;Min_cycle;Max_cycle;Signal;HPM_P1;HPM_P2
2022/03/22 00:00:04;;;;;;;36.13;19.13;;;10.50;99.90;;;;;;5051747;28;20174;-48
2022/03/22 00:02:30;;;;;;;27.48;18.13;;;10.50;99.90;;;;;;5051435;28;20175;-48
2022/03/22 00:04:56;;;;;;;52.35;26.02;;;10.50;99.90;;;;;;5051961;28;20175;-48
2022/03/22 00:07:21;;;;;;;37.92;23.33;;;8.40;99.90;;;;;;5051623;28;20175;-49
2022/03/22 00:09:47;;;;;;;42.70;24.58;;;10.50;99.90;;;;;;5051617;28;20563;-49
2022/03/22 00:12:12;;;;;;;33.47;21.20;;;10.50;99.90;;;;;;5051678;28;20167;-49
2022/03/22 00:14:38;;;;;;;45.25;24.33;;;10.50;99.90;;;;;;5051423;28;20249;-49
2022/03/22 00:17:04;;;;;;;47.30;28.60;;;10.50;99.90;;;;;;5049525;28;20167;-48
2022/03/22 00:19:29;;;;;;;38.63;24.02;;;10.40;99.90;;;;;;5034522;28;20163;-49
2022/03/22 00:21:55;;;;;;;45.53;28.08;;;10.40;99.90;;;;;;5035415;28;20182;-49
2022/03/22 00:24:20;;;;;;;34.47;22.10;;;10.40;99.90;;;;;;5034979;28;20172;-49
2022/03/22 00:26:46;;;;;;;37.85;22.77;;;10.40;99.90;;;;;;5034938;28;20206;-49
2022/03/22 00:29:11;;;;;;;32.65;17.85;;;10.40;99.90;;;;;;5034798;28;20269;-49
2022/03/22 00:31:37;;;;;;;33.47;18.85;;;10.40;99.90;;;;;;5034884;28;20715;-49
2022/03/22 00:34:03;;;;;;;44.33;26.08;;;10.30;99.90;;;;;;5035013;28;20660;-49
2022/03/22 00:36:28;;;;;;;42.35;26.92;;;10.30;99.90;;;;;;5034714;28;20168;-49
2022/03/22 00:38:54;;;;;;;29.98;19.17;;;10.30;99.90;;;;;;5035082;28;20164;-49
2022/03/22 00:41:20;;;;;;;26.50;18.42;;;10.20;99.90;;;;;;5034742;28;20182;-49
2022/03/22 00:43:46;;;;;;;28.23;15.75;;;10.20;99.90;;;;;;5034770;28;20641;-49
2022/03/22 00:46:13;;;;;;;23.50;16.10;;;10.20;99.90;;;;;;5034386;28;20656;-49
2022/03/22 00:48:39;;;;;;;30.40;20.10;;;10.10;99.90;;;;;;5034713;28;20245;-50
2022/03/22 00:51:05;;;;;;;23.40;14.10;;;10.10;99.90;;;;;;5034795;28;20263;-49
2022/03/22 00:53:31;;;;;;;25.77;16.00;;;10.10;99.90;;;;;;5034492;28;20591;-48
2022/03/22 00:55:56;;;;;;;25.08;16.83;;;10.10;99.90;;;;;;5034438;28;20297;-48
2022/03/22 00:58:22;;;;;;;22.27;15.18;;;10.00;99.90;;;;;;5034633;28;20530;-49
2022/03/22 01:00:48;;;;;;;20.20;14.70;;;10.00;99.90;;;;;;5034385;28;20171;-49
2022/03/22 01:03:14;;;;;;;24.02;14.18;;;10.00;99.90;;;;;;5034297;28;20168;-49
2022/03/22 01:05:40;;;;;;;27.67;17.98;;;9.90;99.90;;;;;;5034229;28;20167;-49
2022/03/22 01:08:11;;;;;;;23.13;15.57;;;9.90;99.90;;;;;;5034337;28;20607;-48
2022/03/22 01:10:39;;;;;;;25.48;16.08;;;9.90;99.90;;;;;;5034165;28;20258;-49
2022/03/22 01:13:06;;;;;;;23.90;13.38;;;9.90;99.90;;;;;;5034080;28;20662;-49
2022/03/22 01:15:34;;;;;;;24.48;13.90;;;9.90;99.90;;;;;;5034022;28;20644;-49
2022/03/22 01:18:05;;;;;;;21.20;14.68;;;9.90;99.90;;;;;;5033996;28;20199;-49
2022/03/22 01:20:36;;;;;;;21.85;13.90;;;9.90;99.90;;;;;;5033879;28;20709;-49
2022/03/22 01:23:04;;;;;;;23.15;13.98;;;9.80;99.90;;;;;;5033937;28;20176;-49
2022/03/22 01:25:30;;;;;;;18.80;13.20;;;9.80;99.90;;;;;;5033872;28;20163;-50
2022/03/22 01:27:57;;;;;;;21.75;14.00;;;9.80;99.90;;;;;;5034111;28;20198;-50
2022/03/22 01:30:25;;;;;;;24.15;14.77;;;9.80;99.90;;;;;;5033358;28;20661;-49
2022/03/22 01:32:53;;;;;;;23.17;14.27;;;9.70;99.90;;;;;;5033983;28;20233;-49
2022/03/22 01:35:19;;;;;;;23.38;15.13;;;9.70;99.90;;;;;;5033572;28;20639;-49
2022/03/22 01:37:47;;;;;;;20.75;13.27;;;9.70;99.90;;;;;;5033538;28;20171;-50
2022/03/22 01:40:13;;;;;;;22.02;14.07;;;9.70;99.90;;;;;;5033861;28;20175;-48
2022/03/22 01:42:39;;;;;;;21.80;14.18;;;9.70;99.90;;;;;;5033804;28;20634;-47
2022/03/22 01:45:07;;;;;;;21.58;14.18;;;9.70;99.90;;;;;;5033562;28;20198;-47
2022/03/22 01:47:35;;;;;;;20.50;12.65;;;9.70;99.90;;;;;;5033707;28;20171;-48
2022/03/22 01:50:02;;;;;;;23.40;13.68;;;9.60;99.90;;;;;;5033494;28;20206;-47
2022/03/22 01:52:27;;;;;;;20.63;13.82;;;9.60;99.90;;;;;;5033435;28;20174;-47
2022/03/22 01:54:55;;;;;;;22.52;14.48;;;9.60;99.90;;;;;;5033619;28;20167;-48
2022/03/22 01:57:23;;;;;;;22.88;14.02;;;9.60;99.90;;;;;;5033714;28;20222;-47
2022/03/22 01:59:49;;;;;;;25.10;14.20;;;9.60;99.90;;;;;;5033118;28;20172;-48
2022/03/22 02:07:46;;;;;;;19.92;13.18;;;9.50;99.90;;;;;;5033398;28;20238;-49
2022/03/22 02:10:12;;;;;;;20.77;13.70;;;9.50;99.90;;;;;;5033033;28;20171;-50
2022/03/22 02:12:38;;;;;;;20.10;13.13;;;9.50;99.90;;;;;;5033052;28;20642;-50
2022/03/22 02:15:05;;;;;;;23.98;14.65;;;9.50;99.90;;;;;;5033197;28;20171;-49
2022/03/22 02:17:31;;;;;;;21.98;13.55;;;9.40;99.90;;;;;;5031760;28;20534;-50
2022/03/22 02:19:58;;;;;;;19.92;14.02;;;9.40;99.90;;;;;;5032844;28;20175;-47
2022/03/22 02:22:32;;;;;;;21.73;13.98;;;9.40;99.90;;;;;;5033108;28;20171;-50
2022/03/22 02:24:57;;;;;;;22.55;14.50;;;9.40;99.90;;;;;;5031547;28;20171;-48
2022/03/22 02:27:29;;;;;;;20.40;13.57;;;9.40;99.90;;;;;;5033045;28;20182;-50
2022/03/22 02:29:55;;;;;;;24.83;14.32;;;9.30;99.90;;;;;;5033109;28;20219;-49
2022/03/22 02:32:24;;;;;;;20.98;13.45;;;9.30;99.90;;;;;;5032619;28;20172;-49
2022/03/22 02:34:50;;;;;;;20.17;13.57;;;9.30;99.90;;;;;;5031259;28;20206;-49
2022/03/22 02:37:15;;;;;;;31.50;14.57;;;9.20;99.90;;;;;;5032503;28;20206;-50
2022/03/22 02:39:41;;;;;;;24.55;14.30;;;9.20;99.90;;;;;;5032458;28;20167;-49
2022/03/22 02:42:07;;;;;;;19.42;13.63;;;9.20;99.90;;;;;;5031528;28;20163;-49
2022/03/22 02:44:32;;;;;;;18.38;12.63;;;9.20;99.90;;;;;;5032432;28;20179;-50
2022/03/22 02:46:58;;;;;;;22.60;13.88;;;9.10;99.90;;;;;;5031009;28;20219;-50
2022/03/22 02:49:23;;;;;;;22.13;13.07;;;9.10;99.90;;;;;;5032572;28;20212;-50
2022/03/22 02:51:49;;;;;;;20.63;13.48;;;9.10;99.90;;;;;;5032185;28;20309;-50
2022/03/22 02:54:15;;;;;;;22.98;12.98;;;9.10;99.90;;;;;;5031035;28;20178;-48
2022/03/22 02:56:40;;;;;;;19.42;13.63;;;9.10;99.90;;;;;;5032282;28;20168;-47
2022/03/22 02:59:06;;;;;;;25.80;13.85;;;9.00;99.90;;;;;;5032497;28;20190;-48
2022/03/22 03:01:32;;;;;;;21.33;12.18;;;9.00;99.90;;;;;;5032496;28;20729;-48
2022/03/22 03:04:00;;;;;;;21.10;12.88;;;9.00;99.90;;;;;;5032607;28;20193;-47
2022/03/22 03:06:28;;;;;;;21.65;13.70;;;9.00;99.90;;;;;;5032647;28;20178;-47
2022/03/22 03:08:55;;;;;;;21.33;13.80;;;9.00;99.90;;;;;;5032552;28;20290;-47
2022/03/22 03:11:20;;;;;;;19.00;13.00;;;8.90;99.90;;;;;;5032246;28;20171;-47
2022/03/22 03:16:30;;;;;;;20.13;13.30;;;8.90;99.90;;;;;;5032257;28;20266;-48
2022/03/22 03:18:55;;;;;;;20.67;12.63;;;8.90;99.90;;;;;;5032249;28;20212;-48
2022/03/22 03:21:21;;;;;;;20.52;13.00;;;8.80;99.90;;;;;;5031964;28;20309;-47
2022/03/22 03:23:46;;;;;;;19.55;13.38;;;8.80;99.90;;;;;;5031976;28;20174;-49
2022/03/22 03:26:12;;;;;;;18.00;12.65;;;8.80;99.90;;;;;;5031880;28;20171;-49
2022/03/22 03:28:38;;;;;;;25.02;13.43;;;8.80;99.90;;;;;;5031790;28;20286;-49
2022/03/22 03:31:03;;;;;;;21.50;13.38;;;8.80;99.90;;;;;;5032073;28;20181;-49
2022/03/22 03:33:29;;;;;;;19.88;13.43;;;8.80;99.90;;;;;;5032118;28;20190;-49
2022/03/22 03:35:54;;;;;;;21.42;13.25;;;8.80;99.90;;;;;;5032148;28;20218;-48
2022/03/22 03:38:20;;;;;;;20.42;12.18;;;8.80;99.90;;;;;;5031808;28;20167;-48
2022/03/22 03:43:29;;;;;;;19.05;12.80;;;8.80;99.90;;;;;;5031943;28;20249;-47
2022/03/22 03:48:39;;;;;;;21.77;12.98;;;8.70;99.90;;;;;;5031822;28;20278;-48
2022/03/22 03:51:04;;;;;;;20.58;13.40;;;8.70;99.90;;;;;;5031702;28;20172;-47
2022/03/22 03:53:30;;;;;;;22.10;13.73;;;8.70;99.90;;;;;;5033199;28;20170;-48
2022/03/22 03:55:55;;;;;;;19.42;12.68;;;8.70;99.90;;;;;;5035896;28;20175;-47
2022/03/22 03:58:21;;;;;;;19.17;12.25;;;8.70;99.90;;;;;;5035564;28;20254;-47
2022/03/22 04:00:46;;;;;;;18.65;12.48;;;8.70;99.90;;;;;;5035471;28;20635;-47
2022/03/22 04:03:12;;;;;;;22.58;12.68;;;8.60;99.90;;;;;;5035467;28;20175;-47
2022/03/22 04:05:37;;;;;;;18.88;12.88;;;8.70;99.90;;;;;;5035739;28;20164;-47
2022/03/22 04:08:03;;;;;;;21.42;12.70;;;8.60;99.90;;;;;;5035553;28;20559;-48
2022/03/22 04:10:28;;;;;;;19.45;12.65;;;8.60;99.90;;;;;;5035200;28;20573;-48
2022/03/22 04:12:54;;;;;;;21.08;12.30;;;8.60;99.90;;;;;;5035557;28;20159;-48
2022/03/22 04:15:20;;;;;;;22.88;13.05;;;8.50;99.90;;;;;;5035219;28;20635;-48
2022/03/22 04:17:45;;;;;;;19.23;12.35;;;8.50;99.90;;;;;;5035458;28;20170;-48
2022/03/22 04:20:11;;;;;;;22.15;13.90;;;9.30;99.90;;;;;;5035128;28;20580;-48
2022/03/22 04:22:37;;;;;;;20.80;12.82;;;8.40;99.90;;;;;;5035338;28;20182;-48
2022/03/22 04:25:03;;;;;;;21.27;13.32;;;8.40;99.90;;;;;;5035348;28;20171;-48
2022/03/22 04:32:59;;;;;;;20.98;12.32;;;8.40;99.90;;;;;;5034955;28;20185;-48
2022/03/22 04:35:27;;;;;;;20.70;13.15;;;8.30;99.90;;;;;;5035120;28;20163;-47
2022/03/22 04:37:54;;;;;;;19.60;13.48;;;8.40;99.90;;;;;;5035346;28;20266;-48
2022/03/22 04:40:20;;;;;;;19.83;11.93;;;8.30;99.90;;;;;;5034690;28;20164;-47
2022/03/22 04:42:47;;;;;;;23.48;13.35;;;8.30;99.90;;;;;;5035047;28;20174;-48
2022/03/22 04:45:13;;;;;;;23.35;14.85;;;8.30;99.90;;;;;;5034445;28;20167;-47
2022/03/22 04:47:39;;;;;;;29.17;16.83;;;8.30;99.90;;;;;;5034770;28;20517;-47
2022/03/22 04:50:07;;;;;;;28.02;15.00;;;8.30;99.90;;;;;;5034302;28;20264;-47
2022/03/22 04:58:02;;;;;;;22.40;11.93;;;8.30;99.90;;;;;;5034666;28;20175;-48
2022/03/22 05:00:28;;;;;;;20.92;14.07;;;8.20;99.90;;;;;;5034625;28;20179;-48
2022/03/22 05:02:53;;;;;;;20.08;12.43;;;8.20;99.90;;;;;;5034614;28;20164;-49
2022/03/22 05:06:25;;;;;;;19.13;12.13;;;8.20;99.90;;;;;;5033156;28;20175;-48
2022/03/22 05:08:04;;;;;;;19.67;12.30;;;8.20;99.90;;;;;;5033966;28;20171;-48
2022/03/22 05:10:35;;;;;;;18.42;12.55;;;8.20;99.90;;;;;;5034182;28;20234;-48
2022/03/22 05:13:02;;;;;;;21.50;12.43;;;8.20;99.90;;;;;;5034231;28;20650;-48
2022/03/22 05:15:27;;;;;;;22.17;11.93;;;8.10;99.90;;;;;;5034323;28;20270;-47
2022/03/22 05:17:53;;;;;;;21.50;12.23;;;8.10;99.90;;;;;;5034308;28;20243;-48
2022/03/22 05:20:19;;;;;;;22.13;12.88;;;8.10;99.90;;;;;;5033921;28;20647;-48
2022/03/22 05:22:44;;;;;;;21.42;13.05;;;8.00;99.90;;;;;;5033845;28;20167;-48
2022/03/22 05:25:10;;;;;;;21.73;13.60;;;8.00;99.90;;;;;;5033771;28;20184;-47
2022/03/22 05:27:37;;;;;;;20.75;12.93;;;8.00;99.90;;;;;;5033868;28;20175;-48
2022/03/22 05:30:04;;;;;;;24.35;12.80;;;7.90;99.90;;;;;;5033970;28;20253;-47
2022/03/22 05:32:30;;;;;;;30.02;14.68;;;7.90;99.90;;;;;;5033713;28;20164;-48
2022/03/22 05:34:55;;;;;;;21.20;13.15;;;7.90;99.90;;;;;;5033972;28;20692;-48
2022/03/22 05:37:22;;;;;;;22.98;13.82;;;8.00;99.90;;;;;;5033716;28;20163;-48
2022/03/22 05:39:48;;;;;;;22.55;12.88;;;8.00;99.90;;;;;;5033605;28;20168;-49
2022/03/22 05:42:14;;;;;;;24.58;13.30;;;7.90;99.90;;;;;;5033449;28;20171;-48
2022/03/22 05:44:40;;;;;;;25.63;14.30;;;7.90;99.90;;;;;;5033444;28;20233;-48
2022/03/22 05:47:06;;;;;;;29.85;14.65;;;7.90;99.90;;;;;;5033340;28;20694;-47
2022/03/22 05:49:33;;;;;;;29.70;15.73;;;8.00;99.90;;;;;;5033266;28;20218;-48
2022/03/22 05:51:59;;;;;;;23.05;13.07;;;8.00;99.90;;;;;;5033228;28;20242;-47
2022/03/22 05:54:25;;;;;;;18.52;11.75;;;8.00;99.90;;;;;;5032442;28;20178;-47
2022/03/22 05:56:50;;;;;;;17.52;11.30;;;8.00;99.90;;;;;;5033303;28;20163;-48
2022/03/22 05:59:16;;;;;;;18.02;11.80;;;8.00;99.90;;;;;;5033184;28;20529;-48
2022/03/22 06:01:44;;;;;;;21.13;12.20;;;8.00;99.90;;;;;;5033221;28;20218;-48
2022/03/22 06:04:10;;;;;;;18.13;11.90;;;8.10;99.90;;;;;;5033400;28;20237;-47
2022/03/22 06:06:36;;;;;;;20.33;13.40;;;8.00;99.90;;;;;;5033120;28;20171;-48
2022/03/22 06:09:02;;;;;;;22.65;12.40;;;8.10;99.90;;;;;;5033242;28;20211;-47
2022/03/22 06:11:34;;;;;;;17.30;11.70;;;8.10;99.90;;;;;;5031823;28;20167;-48
2022/03/22 06:14:00;;;;;;;31.50;16.20;;;8.10;99.90;;;;;;5033193;28;20509;-48
2022/03/22 06:16:25;;;;;;;23.90;13.32;;;8.20;99.90;;;;;;5033083;28;20168;-48
2022/03/22 06:18:51;;;;;;;18.88;12.50;;;8.20;99.90;;;;;;5033237;28;20241;-49
2022/03/22 06:21:16;;;;;;;26.02;12.75;;;8.20;99.90;;;;;;5032744;28;20202;-48
2022/03/22 06:23:42;;;;;;;21.05;12.75;;;8.30;99.90;;;;;;5032757;28;20167;-49
2022/03/22 06:26:07;;;;;;;18.52;13.60;;;8.20;99.90;;;;;;5032786;28;20163;-49
2022/03/22 06:28:33;;;;;;;26.83;14.50;;;8.30;99.90;;;;;;5032608;28;20674;-49
2022/03/22 06:30:59;;;;;;;19.17;13.02;;;8.40;99.90;;;;;;5032719;28;20175;-49
2022/03/22 06:33:24;;;;;;;17.83;11.60;;;8.40;99.90;;;;;;5032846;28;20178;-49
2022/03/22 06:35:50;;;;;;;16.80;11.77;;;8.40;99.90;;;;;;5032499;28;20241;-49
2022/03/22 06:38:16;;;;;;;18.63;12.20;;;8.40;99.90;;;;;;5032785;28;20496;-49
2022/03/22 06:40:42;;;;;;;31.63;15.82;;;8.50;99.90;;;;;;5032471;28;20650;-48
2022/03/22 06:43:12;;;;;;;20.92;12.50;;;8.50;99.90;;;;;;5032727;28;20175;-48
2022/03/22 06:45:38;;;;;;;18.17;11.77;;;8.50;99.90;;;;;;5032432;28;20218;-49
2022/03/22 06:48:06;;;;;;;18.63;11.23;;;8.50;99.90;;;;;;5032581;28;20198;-48
2022/03/22 06:50:33;;;;;;;19.55;12.35;;;8.50;99.90;;;;;;5032575;28;20186;-48
2022/03/22 06:52:58;;;;;;;23.30;12.90;;;8.60;99.90;;;;;;5032440;28;20186;-49
2022/03/22 06:55:24;;;;;;;29.65;14.02;;;8.60;99.90;;;;;;5032599;28;20635;-48
2022/03/22 06:57:53;;;;;;;20.33;11.80;;;8.70;99.90;;;;;;5032238;28;20691;-48
2022/03/22 07:00:20;;;;;;;24.98;12.93;;;8.80;99.90;;;;;;5032110;28;20631;-48
2022/03/22 07:02:48;;;;;;;28.80;13.48;;;8.90;99.90;;;;;;5032125;28;20198;-49
2022/03/22 07:05:15;;;;;;;17.95;11.75;;;9.00;99.90;;;;;;5032085;28;20729;-48
2022/03/22 07:07:41;;;;;;;22.05;11.98;;;9.20;99.90;;;;;;5032206;28;20183;-48
2022/03/22 07:10:15;;;;;;;15.00;11.35;;;9.30;99.90;;;;;;5032054;28;20548;-47
2022/03/22 07:12:54;;;;;;;23.15;12.63;;;9.40;99.90;;;;;;5032163;28;20163;-48
2022/03/22 07:15:23;;;;;;;16.58;11.32;;;9.40;99.90;;;;;;5031946;28;20175;-47
2022/03/22 07:17:49;;;;;;;21.35;12.00;;;9.50;99.90;;;;;;5031944;28;20518;-47
2022/03/22 07:20:15;;;;;;;16.27;11.35;;;9.60;99.90;;;;;;5031917;28;20254;-47
2022/03/22 07:22:41;;;;;;;17.75;11.52;;;9.80;99.90;;;;;;5032131;28;20262;-47
2022/03/22 07:25:08;;;;;;;18.65;11.88;;;9.90;99.90;;;;;;5032264;28;20246;-48
2022/03/22 07:27:34;;;;;;;19.02;11.75;;;10.00;99.90;;;;;;5032159;28;20229;-47
2022/03/22 07:30:01;;;;;;;19.70;12.65;;;10.10;99.90;;;;;;5036170;28;20302;-47
2022/03/22 07:32:27;;;;;;;15.50;11.95;;;10.20;99.90;;;;;;5035013;28;20554;-48
2022/03/22 07:34:53;;;;;;;18.63;11.15;;;10.20;99.90;;;;;;5036395;28;20174;-47
2022/03/22 07:37:19;;;;;;;21.02;12.10;;;10.20;99.90;;;;;;5035936;28;20520;-47
2022/03/22 07:39:45;;;;;;;17.45;12.60;;;10.30;99.90;;;;;;5035863;28;20168;-49
2022/03/22 07:42:11;;;;;;;46.88;15.82;;;10.30;99.90;;;;;;5036016;28;20178;-49
2022/03/22 07:44:36;;;;;;;19.42;12.80;;;10.40;99.90;;;;;;5035755;28;20631;-49
2022/03/22 07:47:02;;;;;;;18.33;12.00;;;10.40;99.90;;;;;;5035555;28;20218;-48
2022/03/22 07:54:56;;;;;;;20.05;13.27;;;10.60;99.90;;;;;;5035654;28;20178;-47
2022/03/22 07:57:22;;;;;;;18.70;12.32;;;10.70;99.90;;;;;;5035633;28;20168;-48
2022/03/22 07:59:47;;;;;;;20.73;12.75;;;10.80;99.90;;;;;;5035527;28;20217;-47
2022/03/22 08:02:13;;;;;;;18.30;12.48;;;10.90;99.90;;;;;;5035608;28;20175;-47
2022/03/22 08:04:38;;;;;;;20.92;12.73;;;11.10;99.90;;;;;;5035612;28;20218;-47
2022/03/22 08:07:04;;;;;;;17.52;12.25;;;11.00;99.90;;;;;;5035327;28;20221;-49
2022/03/22 08:09:29;;;;;;;20.85;12.48;;;11.10;99.90;;;;;;5035245;28;20214;-48
2022/03/22 08:11:55;;;;;;;19.13;12.90;;;11.10;99.90;;;;;;5035584;28;20172;-47
2022/03/22 08:14:21;;;;;;;17.05;11.77;;;11.10;99.90;;;;;;5035280;28;20217;-48
2022/03/22 08:16:46;;;;;;;16.92;12.45;;;11.40;99.90;;;;;;5035386;28;20171;-48
2022/03/22 08:19:17;;;;;;;20.33;13.20;;;11.40;99.90;;;;;;5035207;28;20254;-48
2022/03/22 08:21:43;;;;;;;16.08;12.82;;;11.60;99.90;;;;;;5035132;28;20592;-49
2022/03/22 08:24:09;;;;;;;17.13;12.43;;;11.60;99.90;;;;;;5035265;28;20172;-49
2022/03/22 08:26:35;;;;;;;16.73;12.18;;;11.70;99.90;;;;;;5034949;28;20170;-49
2022/03/22 08:29:00;;;;;;;15.18;12.60;;;11.90;99.90;;;;;;5035125;28;20207;-47
2022/03/22 08:31:26;;;;;;;21.75;12.85;;;12.00;99.90;;;;;;5034932;28;20627;-47
2022/03/22 08:33:53;;;;;;;16.77;11.75;;;12.10;99.90;;;;;;5035100;28;20601;-49
2022/03/22 08:36:20;;;;;;;16.67;11.77;;;12.20;99.90;;;;;;5035014;28;20189;-49
2022/03/22 08:38:46;;;;;;;18.23;12.43;;;12.40;99.90;;;;;;5034971;28;20175;-49
2022/03/22 08:41:12;;;;;;;16.98;12.85;;;12.50;99.90;;;;;;5034642;28;20170;-49
2022/03/22 08:43:37;;;;;;;17.52;12.30;;;12.60;99.90;;;;;;5034642;28;20180;-49
2022/03/22 08:46:05;;;;;;;19.25;12.13;;;12.60;99.90;;;;;;5034552;28;20227;-49
2022/03/22 08:48:31;;;;;;;21.98;12.35;;;12.70;99.90;;;;;;5034586;28;20184;-49
2022/03/22 08:50:57;;;;;;;16.42;12.13;;;12.80;99.90;;;;;;5034916;28;20179;-49
2022/03/22 08:53:24;;;;;;;22.98;12.07;;;12.80;99.90;;;;;;5034979;28;20187;-49
2022/03/22 08:55:50;;;;;;;21.48;12.48;;;12.90;99.90;;;;;;5034492;28;20171;-49
2022/03/22 08:58:16;;;;;;;19.48;13.15;;;12.90;99.90;;;;;;5034457;28;20616;-49
2022/03/22 09:00:42;;;;;;;17.58;12.48;;;13.00;99.90;;;;;;5034625;28;20210;-49
2022/03/22 09:03:10;;;;;;;17.65;12.90;;;13.20;99.90;;;;;;5034313;28;20612;-49
2022/03/22 09:08:19;;;;;;;17.52;13.10;;;13.40;99.90;;;;;;5034134;28;20202;-50
2022/03/22 09:10:50;;;;;;;18.95;12.27;;;13.60;99.80;;;;;;5034134;28;20175;-49
2022/03/22 09:13:16;;;;;;;20.08;13.20;;;13.60;98.80;;;;;;5034461;28;20258;-49
2022/03/22 09:15:43;;;;;;;16.48;12.60;;;13.60;98.40;;;;;;5034126;28;20167;-49
2022/03/22 09:18:15;;;;;;;21.52;12.65;;;13.80;98.90;;;;;;5034303;28;20168;-49
2022/03/22 09:20:45;;;;;;;19.60;13.35;;;13.90;98.60;;;;;;5034023;28;20270;-49
2022/03/22 09:23:12;;;;;;;16.10;13.43;;;13.90;97.40;;;;;;5033968;28;20171;-49
2022/03/22 09:25:39;;;;;;;19.05;13.70;;;14.10;98.00;;;;;;5034270;28;20178;-49
2022/03/22 09:28:06;;;;;;;20.65;14.32;;;14.20;98.30;;;;;;5033699;28;20182;-49
2022/03/22 09:30:33;;;;;;;19.15;13.70;;;14.20;96.70;;;;;;5034089;28;20189;-49
2022/03/22 09:32:59;;;;;;;21.25;13.73;;;14.30;97.10;;;;;;5033792;28;20163;-49
2022/03/22 09:35:25;;;;;;;20.52;14.88;;;14.50;96.70;;;;;;5033984;28;20206;-49
2022/03/22 09:37:51;;;;;;;40.92;22.25;;;14.60;95.30;;;;;;5033653;28;20168;-49
2022/03/22 09:40:18;;;;;;;20.50;14.38;;;14.60;94.40;;;;;;5033887;28;20266;-49
2022/03/22 09:42:46;;;;;;;22.58;14.48;;;13.00;93.10;;;;;;5033617;28;20175;-49
2022/03/22 09:45:14;;;;;;;22.48;16.27;;;14.70;94.00;;;;;;5033599;28;20175;-48
2022/03/22 09:47:42;;;;;;;50.55;31.15;;;14.80;93.20;;;;;;5033751;28;20180;-49
2022/03/22 09:50:09;;;;;;;23.10;15.95;;;15.00;93.30;;;;;;5033325;28;20203;-49
2022/03/22 09:52:35;;;;;;;25.17;17.73;;;15.00;91.70;;;;;;5032828;28;20223;-49
2022/03/22 09:55:01;;;;;;;19.63;13.15;;;15.20;92.40;;;;;;5033392;28;20581;-49
2022/03/22 09:57:28;;;;;;;34.45;20.73;;;15.20;91.60;;;;;;5033375;28;20163;-49
2022/03/22 09:59:53;;;;;;;26.92;17.73;;;15.30;91.40;;;;;;5033874;28;20217;-49
2022/03/22 10:02:27;;;;;;;30.95;18.77;;;15.40;91.30;;;;;;5033082;28;20171;-48
2022/03/22 10:04:53;;;;;;;19.88;13.65;;;15.50;91.20;;;;;;5033291;28;20670;-47
2022/03/22 10:07:20;;;;;;;18.02;12.90;;;15.50;90.30;;;;;;5033101;28;20206;-47
2022/03/22 10:10:00;;;;;;;16.35;12.70;;;15.60;89.90;;;;;;5032954;28;20741;-47
2022/03/22 10:12:36;;;;;;;20.88;14.48;;;15.60;88.50;;;;;;5033085;28;20250;-47
2022/03/22 10:15:14;;;;;;;27.98;21.15;;;15.60;89.50;;;;;;5032869;28;20178;-48
2022/03/22 10:17:41;;;;;;;25.25;17.92;;;15.90;89.10;;;;;;5033173;28;20179;-48
2022/03/22 10:20:08;;;;;;;29.38;20.88;;;15.90;86.00;;;;;;5032848;28;20214;-47
2022/03/22 10:22:35;;;;;;;19.33;15.30;;;15.90;82.80;;;;;;5032877;28;20189;-47
2022/03/22 10:25:04;;;;;;;18.50;15.10;;;16.00;83.30;;;;;;5033064;28;20475;-47
2022/03/22 10:27:35;;;;;;;20.52;16.77;;;16.00;82.30;;;;;;5032953;28;20229;-47
2022/03/22 10:30:06;;;;;;;18.42;12.50;;;16.00;80.40;;;;;;5031607;28;20666;-47
2022/03/22 10:32:35;;;;;;;16.25;12.77;;;16.10;78.30;;;;;;5032580;28;20167;-47
2022/03/22 10:35:14;;;;;;;14.40;12.00;;;16.20;79.40;;;;;;5032661;28;20167;-47
2022/03/22 10:37:47;;;;;;;15.82;11.93;;;16.10;76.60;;;;;;5032696;28;20522;-47
2022/03/22 10:40:24;;;;;;;20.70;14.05;;;16.30;75.70;;;;;;5032605;28;20221;-47
2022/03/22 10:42:52;;;;;;;17.98;11.48;;;16.40;72.60;;;;;;5031122;28;20175;-47
2022/03/22 10:45:17;;;;;;;23.98;17.38;;;16.50;73.70;;;;;;5032210;28;20699;-48
2022/03/22 10:47:43;;;;;;;15.05;10.98;;;16.50;74.30;;;;;;5032566;28;20187;-47
2022/03/22 10:50:09;;;;;;;12.68;10.13;;;16.50;66.10;;;;;;5032305;28;20720;-47
2022/03/22 10:52:54;;;;;;;23.58;14.85;;;16.40;66.20;;;;;;5032653;28;20167;-49
2022/03/22 10:55:21;;;;;;;15.15;10.43;;;16.60;65.60;;;;;;5032367;28;20163;-48
2022/03/22 10:57:49;;;;;;;14.60;10.40;;;16.70;64.30;;;;;;5032170;28;20175;-47
2022/03/22 11:00:15;;;;;;;14.77;10.45;;;16.70;63.80;;;;;;5032197;28;20171;-47
2022/03/22 11:02:42;;;;;;;15.80;11.27;;;16.80;61.50;;;;;;5031317;28;20250;-47
2022/03/22 11:05:08;;;;;;;21.13;13.55;;;16.90;62.70;;;;;;5032381;28;20246;-47
2022/03/22 11:07:40;;;;;;;43.22;21.23;;;16.80;63.40;;;;;;5032207;28;20164;-47
2022/03/22 11:10:06;;;;;;;17.38;10.68;;;17.20;62.70;;;;;;5032112;28;20551;-47
2022/03/22 11:12:33;;;;;;;16.75;11.23;;;17.20;60.40;;;;;;5032117;28;20163;-47
2022/03/22 11:15:02;;;;;;;16.13;10.18;;;17.20;61.00;;;;;;5031909;28;20206;-47
2022/03/22 11:17:33;;;;;;;26.77;14.13;;;17.10;59.20;;;;;;5031690;28;20654;-47
2022/03/22 11:19:59;;;;;;;19.25;11.48;;;17.10;61.10;;;;;;5032272;28;20179;-47
2022/03/22 11:22:25;;;;;;;14.77;11.00;;;17.10;61.30;;;;;;5031503;28;20229;-47
2022/03/22 11:24:52;;;;;;;13.57;10.63;;;18.30;64.30;;;;;;5032091;28;20171;-47
2022/03/22 11:27:28;;;;;;;27.23;16.98;;;17.40;63.40;;;;;;5031486;28;20615;-47
2022/03/22 11:29:53;;;;;;;23.25;17.25;;;17.30;61.10;;;;;;5030703;28;20226;-48
2022/03/22 11:35:12;;;;;;;18.42;11.25;;;17.60;63.00;;;;;;5031603;28;20182;-48
2022/03/22 11:37:38;;;;;;;15.75;12.30;;;17.70;61.60;;;;;;5031892;28;20162;-47
2022/03/22 11:42:57;;;;;;;12.35;10.05;;;18.10;64.10;;;;;;5031764;28;20210;-48
2022/03/22 11:45:24;;;;;;;14.48;10.77;;;18.00;62.10;;;;;;5031969;28;20729;-47
2022/03/22 11:47:53;;;;;;;13.02;10.25;;;18.00;60.50;;;;;;5031625;28;20201;-48
2022/03/22 11:50:21;;;;;;;15.07;11.15;;;18.00;60.80;;;;;;5031867;28;20612;-47
2022/03/22 11:52:48;;;;;;;14.50;10.50;;;18.20;60.90;;;;;;5031354;28;20198;-47
2022/03/22 11:55:17;;;;;;;12.55;9.60;;;18.20;60.50;;;;;;5031521;28;20174;-47
2022/03/22 11:58:00;;;;;;;12.27;9.88;;;18.20;58.00;;;;;;5031586;28;20178;-48
2022/03/22 12:00:51;;;;;;;17.23;12.32;;;18.30;58.50;;;;;;5031401;28;20166;-47
2022/03/22 12:03:19;;;;;;;14.20;10.98;;;18.40;60.20;;;;;;5031408;28;20258;-47
2022/03/22 12:05:46;;;;;;;12.68;10.02;;;18.40;58.70;;;;;;5031416;28;20620;-48
2022/03/22 12:08:14;;;;;;;21.05;9.55;;;18.30;58.50;;;;;;5030231;28;20226;-47
2022/03/22 12:10:44;;;;;;;15.13;11.30;;;18.40;59.40;;;;;;5031792;28;20261;-47
2022/03/22 12:13:10;;;;;;;17.33;12.52;;;18.40;57.40;;;;;;5031802;28;20167;-47
2022/03/22 12:15:35;;;;;;;21.20;14.82;;;18.40;57.10;;;;;;5034487;28;20175;-47
2022/03/22 12:18:01;;;;;;;12.38;11.07;;;18.50;59.20;;;;;;5035171;28;20183;-47
2022/03/22 12:20:26;;;;;;;13.98;10.43;;;18.50;57.70;;;;;;5035131;28;20249;-47
2022/03/22 12:23:00;;;;;;;20.60;13.90;;;18.40;56.20;;;;;;5035326;28;20171;-48
2022/03/22 12:25:31;;;;;;;15.20;10.32;;;18.50;56.80;;;;;;5035106;28;20160;-47
2022/03/22 12:28:06;;;;;;;12.52;9.63;;;18.60;56.80;;;;;;5034961;28;20176;-47
2022/03/22 12:30:34;;;;;;;14.48;9.93;;;18.60;57.70;;;;;;5034657;28;20679;-47
2022/03/22 12:33:13;;;;;;;17.40;13.43;;;18.70;57.40;;;;;;5035104;28;20179;-47
2022/03/22 12:35:40;;;;;;;34.03;24.50;;;18.60;57.40;;;;;;5035110;28;20213;-47
2022/03/22 12:38:06;;;;;;;29.25;19.65;;;18.60;57.80;;;;;;5034834;28;20163;-49
2022/03/22 12:40:33;;;;;;;18.85;13.60;;;18.60;57.20;;;;;;5034641;28;20172;-48
2022/03/22 12:43:00;;;;;;;14.23;10.07;;;18.90;59.10;;;;;;5034848;28;20178;-47
2022/03/22 12:45:27;;;;;;;17.30;10.63;;;19.10;59.40;;;;;;5034661;28;20223;-47
2022/03/22 12:47:56;;;;;;;15.38;12.25;;;19.00;57.60;;;;;;5034950;28;20233;-47
2022/03/22 12:50:21;;;;;;;17.08;10.73;;;18.90;57.70;;;;;;5035009;28;20207;-47
2022/03/22 12:52:48;;;;;;;16.10;11.48;;;18.90;57.80;;;;;;5034843;28;20274;-47
2022/03/22 12:55:16;;;;;;;21.60;16.65;;;18.90;58.90;;;;;;5034427;28;20189;-47
2022/03/22 12:57:46;;;;;;;35.20;27.27;;;19.10;58.30;;;;;;5034687;28;20177;-47
2022/03/22 13:00:24;;;;;;;22.20;16.88;;;19.10;58.60;;;;;;5034647;28;20171;-48
2022/03/22 13:02:49;;;;;;;18.63;14.45;;;19.20;58.70;;;;;;5034435;28;20175;-47
2022/03/22 13:05:28;;;;;;;12.82;11.48;;;19.20;59.10;;;;;;5034556;28;20258;-47
2022/03/22 13:07:54;;;;;;;19.52;13.93;;;19.10;57.40;;;;;;5034773;28;20176;-48